Time;durP1;ratioP1;P1;durP2;ratioP2;P2;SDS_P1;SDS_P2;PMS_P1;PMS_P2;Temp;Humidity;BMP_temperature;BMP_pressure;BME280_temperature;BME280_humidity;BME280_pressure;Samples;Min_cycle;Max_cycle;Signal;HPM_P1;HPM_P2
2021/12/26 00:02:13;;;;;;;77.20;18.50;;;6.30;86.20;;;;;;5052832;28;20228;-52
2021/12/26 00:04:42;;;;;;;21.73;10.95;;;6.30;86.10;;;;;;5052444;28;20201;-53
2021/12/26 00:07:09;;;;;;;15.70;9.35;;;6.30;86.10;;;;;;5052313;28;20675;-52
2021/12/26 00:09:36;;;;;;;28.35;10.55;;;6.30;86.10;;;;;;5050881;28;20710;-53
2021/12/26 00:12:03;;;;;;;13.55;9.10;;;6.30;86.10;;;;;;5052199;28;20228;-52
2021/12/26 00:14:30;;;;;;;71.88;12.70;;;6.30;86.10;;;;;;5052128;28;20201;-54
2021/12/26 00:16:58;;;;;;;14.88;8.80;;;6.30;86.20;;;;;;5055206;28;20215;-52
2021/12/26 00:19:25;;;;;;;14.07;7.93;;;6.30;86.20;;;;;;5056038;28;20233;-53
2021/12/26 00:21:53;;;;;;;23.58;10.02;;;6.30;86.30;;;;;;5056174;28;20533;-53
2021/12/26 00:24:20;;;;;;;76.85;15.32;;;6.30;86.30;;;;;;5054468;28;20300;-52
2021/12/26 00:26:47;;;;;;;21.25;9.32;;;6.30;86.30;;;;;;5055676;28;20201;-53
2021/12/26 00:29:14;;;;;;;40.58;10.88;;;6.30;86.30;;;;;;5055672;28;20212;-52
2021/12/26 00:31:41;;;;;;;73.32;13.95;;;6.30;86.20;;;;;;5055737;28;20201;-54
2021/12/26 00:34:08;;;;;;;53.90;12.70;;;6.30;86.30;;;;;;5055771;28;20300;-52
2021/12/26 00:36:36;;;;;;;29.65;10.82;;;6.30;86.10;;;;;;5055600;28;20298;-52
2021/12/26 00:39:04;;;;;;;15.60;8.85;;;6.30;86.10;;;;;;5054210;28;20229;-53
2021/12/26 00:41:31;;;;;;;62.78;12.00;;;6.30;86.10;;;;;;5055339;28;20292;-53
2021/12/26 00:43:58;;;;;;;65.22;14.32;;;6.30;86.20;;;;;;5055390;28;20231;-52
2021/12/26 00:46:25;;;;;;;43.85;14.23;;;6.30;86.20;;;;;;5055442;28;20332;-52
2021/12/26 00:48:52;;;;;;;46.05;9.40;;;6.30;86.20;;;;;;5055370;28;20225;-53
2021/12/26 00:51:19;;;;;;;22.38;10.90;;;6.20;86.20;;;;;;5055313;28;20212;-53
2021/12/26 00:53:46;;;;;;;59.63;16.83;;;6.20;86.20;;;;;;5054014;28;20213;-54
2021/12/26 00:56:15;;;;;;;57.47;13.82;;;6.20;86.20;;;;;;5055234;28;20240;-53
2021/12/26 00:58:42;;;;;;;29.48;10.05;;;6.20;86.20;;;;;;5055246;28;20316;-57
2021/12/26 01:01:09;;;;;;;14.35;9.25;;;6.20;86.10;;;;;;5055162;28;20211;-53
2021/12/26 01:03:36;;;;;;;20.80;10.38;;;6.20;86.30;;;;;;5055161;28;20548;-54
2021/12/26 01:06:03;;;;;;;23.52;9.65;;;6.20;86.10;;;;;;5055345;28;20208;-54
2021/12/26 01:08:36;;;;;;;65.25;12.75;;;6.20;86.10;;;;;;5054272;28;20572;-55
2021/12/26 01:11:15;;;;;;;53.13;12.30;;;6.20;86.30;;;;;;5054813;28;20316;-53
2021/12/26 01:13:45;;;;;;;89.80;13.40;;;6.20;86.30;;;;;;5054850;28;20229;-56
2021/12/26 01:16:13;;;;;;;23.42;9.30;;;6.20;86.30;;;;;;5055079;28;20202;-54
2021/12/26 01:18:43;;;;;;;49.25;11.65;;;6.20;86.30;;;;;;5054777;28;20225;-54
2021/12/26 01:21:18;;;;;;;95.43;14.20;;;6.20;86.20;;;;;;5054741;28;20202;-53
2021/12/26 01:23:46;;;;;;;18.88;8.55;;;6.20;86.20;;;;;;5053421;28;20228;-55
2021/12/26 01:26:13;;;;;;;49.55;11.85;;;6.10;86.20;;;;;;5054767;28;20693;-54
2021/12/26 01:28:40;;;;;;;26.25;10.48;;;6.20;86.30;;;;;;5053920;28;20206;-55
2021/12/26 01:31:09;;;;;;;53.20;13.68;;;6.20;86.30;;;;;;5054764;28;20307;-53
2021/12/26 01:33:36;;;;;;;31.48;10.63;;;6.20;86.30;;;;;;5054648;28;20240;-54
2021/12/26 01:36:04;;;;;;;21.05;9.15;;;6.20;86.30;;;;;;5054465;28;20256;-54
2021/12/26 01:38:31;;;;;;;13.95;9.02;;;6.20;86.20;;;;;;5053619;28;20229;-53
2021/12/26 01:41:01;;;;;;;11.95;7.30;;;6.20;86.30;;;;;;5054439;28;20212;-55
2021/12/26 01:43:30;;;;;;;18.95;10.23;;;6.20;86.20;;;;;;5054174;28;20626;-53
2021/12/26 01:45:57;;;;;;;29.42;8.73;;;6.20;86.30;;;;;;5054387;28;20213;-54
2021/12/26 01:48:26;;;;;;;11.35;6.93;;;6.20;86.10;;;;;;5054268;28;20215;-55
2021/12/26 01:50:54;;;;;;;13.45;7.45;;;6.10;86.20;;;;;;5054243;28;20211;-53
2021/12/26 01:53:24;;;;;;;17.02;8.25;;;6.10;86.30;;;;;;5054270;28;20574;-54
2021/12/26 01:55:53;;;;;;;11.10;6.63;;;6.10;86.30;;;;;;5053006;28;20243;-54
2021/12/26 01:58:23;;;;;;;83.18;12.00;;;6.20;86.30;;;;;;5053899;28;20683;-54
2021/12/26 02:00:52;;;;;;;10.77;6.10;;;6.20;86.40;;;;;;5054121;28;20252;-55
2021/12/26 02:03:19;;;;;;;16.77;8.00;;;6.20;86.40;;;;;;5054071;28;20211;-55
2021/12/26 02:05:48;;;;;;;23.63;8.43;;;6.20;86.50;;;;;;5054128;28;20588;-54
2021/12/26 02:08:15;;;;;;;32.13;7.47;;;6.20;86.50;;;;;;5053932;28;20301;-55
2021/12/26 02:10:42;;;;;;;20.05;7.97;;;6.20;86.50;;;;;;5052394;28;20235;-54
2021/12/26 02:13:09;;;;;;;9.80;6.40;;;6.30;86.30;;;;;;5053765;28;20577;-53
2021/12/26 02:15:37;;;;;;;9.82;6.68;;;6.20;86.30;;;;;;5053685;28;20675;-54
2021/12/26 02:18:05;;;;;;;46.17;9.05;;;6.20;86.30;;;;;;5053744;28;20566;-55
2021/12/26 02:20:40;;;;;;;32.47;8.60;;;6.20;86.30;;;;;;5053640;28;20208;-54
2021/12/26 02:23:13;;;;;;;28.05;7.47;;;6.20;86.30;;;;;;5053696;28;20216;-55
2021/12/26 02:28:27;;;;;;;45.42;9.75;;;6.20;86.30;;;;;;5053493;28;20567;-54
2021/12/26 02:30:56;;;;;;;14.52;6.20;;;6.20;86.30;;;;;;5053492;28;20197;-54
2021/12/26 02:33:23;;;;;;;9.02;5.85;;;6.20;86.20;;;;;;5053424;28;20292;-54
2021/12/26 02:35:53;;;;;;;16.40;5.82;;;6.20;86.20;;;;;;5053443;28;20206;-55
2021/12/26 02:38:21;;;;;;;41.28;8.38;;;6.20;86.20;;;;;;5053127;28;20726;-55
2021/12/26 02:40:50;;;;;;;8.98;5.72;;;6.20;86.20;;;;;;5051363;28;20214;-54
2021/12/26 02:43:18;;;;;;;28.50;7.15;;;6.20;86.20;;;;;;5053073;28;20220;-55
2021/12/26 02:45:45;;;;;;;9.45;6.45;;;6.20;86.10;;;;;;5053257;28;20201;-55
2021/12/26 02:48:13;;;;;;;8.43;5.65;;;6.20;86.00;;;;;;5053162;28;20201;-54
2021/12/26 02:50:41;;;;;;;13.10;6.45;;;6.20;86.10;;;;;;5053228;28;20205;-55
2021/12/26 02:53:12;;;;;;;33.97;7.60;;;6.20;86.00;;;;;;5053027;28;20215;-53
2021/12/26 02:55:39;;;;;;;15.65;7.05;;;6.20;86.10;;;;;;5051888;28;20308;-54
2021/12/26 02:58:08;;;;;;;12.63;6.80;;;6.20;86.10;;;;;;5052942;28;20229;-54
2021/12/26 03:00:40;;;;;;;7.57;4.85;;;6.20;86.10;;;;;;5053150;28;20209;-55
2021/12/26 03:03:07;;;;;;;9.90;6.07;;;6.20;86.10;;;;;;5053090;28;20210;-55
2021/12/26 03:05:37;;;;;;;25.85;8.45;;;6.20;86.20;;;;;;5052990;28;20263;-53
2021/12/26 03:08:04;;;;;;;35.63;9.80;;;6.20;86.10;;;;;;5052986;28;20300;-53
2021/12/26 03:10:33;;;;;;;9.85;6.50;;;6.20;86.00;;;;;;5051581;28;20233;-58
2021/12/26 03:13:02;;;;;;;88.03;16.75;;;6.20;85.80;;;;;;5052778;28;20292;-54
2021/12/26 03:15:30;;;;;;;10.80;7.03;;;6.10;85.80;;;;;;5052929;28;20205;-55
2021/12/26 03:17:57;;;;;;;33.83;9.57;;;6.10;86.20;;;;;;5052752;28;20312;-53
2021/12/26 03:20:28;;;;;;;10.65;6.13;;;6.10;86.30;;;;;;5052682;28;20220;-53
2021/12/26 03:22:55;;;;;;;19.55;9.80;;;6.10;86.20;;;;;;5052804;28;20205;-54
2021/12/26 03:25:23;;;;;;;58.53;10.52;;;6.20;86.20;;;;;;5051422;28;20291;-55
2021/12/26 03:27:51;;;;;;;56.55;11.18;;;6.20;86.10;;;;;;5052502;28;20562;-54
2021/12/26 03:30:21;;;;;;;12.48;7.30;;;6.20;86.00;;;;;;5052797;28;20208;-54
2021/12/26 03:32:48;;;;;;;12.35;7.47;;;6.20;86.00;;;;;;5052638;28;20216;-53
2021/12/26 03:35:16;;;;;;;14.20;8.20;;;6.20;86.00;;;;;;5052688;28;20546;-55
2021/12/26 03:37:43;;;;;;;9.80;6.30;;;6.20;85.90;;;;;;5052617;28;20212;-55
2021/12/26 03:40:11;;;;;;;61.42;11.65;;;6.20;86.00;;;;;;5051331;28;20215;-55
2021/12/26 03:42:39;;;;;;;9.73;6.55;;;6.20;86.00;;;;;;5052408;28;20229;-54
2021/12/26 03:45:09;;;;;;;14.95;7.53;;;6.30;86.00;;;;;;5052601;28;20553;-54
2021/12/26 03:47:38;;;;;;;10.68;7.05;;;6.30;85.90;;;;;;5052554;28;20224;-57
2021/12/26 03:50:07;;;;;;;11.60;7.38;;;6.20;85.90;;;;;;5052522;28;20660;-53
2021/12/26 03:52:34;;;;;;;12.52;7.53;;;6.30;86.00;;;;;;5056555;28;20284;-53
2021/12/26 03:55:00;;;;;;;24.10;8.80;;;6.30;86.00;;;;;;5055310;28;20205;-54
2021/12/26 03:57:27;;;;;;;14.50;8.15;;;6.30;86.00;;;;;;5056280;28;20206;-55
2021/12/26 03:59:54;;;;;;;14.48;8.38;;;6.30;86.00;;;;;;5056231;28;20233;-54
2021/12/26 04:02:22;;;;;;;15.20;9.50;;;6.30;85.80;;;;;;5056427;28;20237;-56
2021/12/26 04:04:49;;;;;;;40.33;11.07;;;6.30;85.90;;;;;;5056332;28;20289;-54
2021/12/26 04:07:16;;;;;;;28.58;8.48;;;6.30;85.90;;;;;;5056235;28;20205;-53
2021/12/26 04:09:43;;;;;;;17.17;8.25;;;6.30;85.90;;;;;;5054699;28;20237;-56
2021/12/26 04:12:10;;;;;;;12.20;7.40;;;6.30;85.80;;;;;;5056023;28;20578;-56
2021/12/26 04:14:37;;;;;;;12.57;6.90;;;6.30;85.80;;;;;;5055991;28;20204;-56
2021/12/26 04:17:04;;;;;;;12.82;7.78;;;6.30;85.80;;;;;;5056103;28;20287;-56
2021/12/26 04:19:33;;;;;;;12.15;7.68;;;6.30;85.90;;;;;;5055989;28;20315;-54
2021/12/26 04:22:00;;;;;;;16.92;8.77;;;6.30;85.90;;;;;;5055988;28;20212;-56
2021/12/26 04:24:27;;;;;;;11.32;6.90;;;6.30;85.90;;;;;;5054624;28;20575;-55
2021/12/26 04:26:53;;;;;;;13.13;8.10;;;6.30;85.90;;;;;;5055832;28;20209;-56
2021/12/26 04:29:20;;;;;;;13.75;8.07;;;6.40;85.90;;;;;;5055793;28;20292;-55
2021/12/26 04:31:47;;;;;;;28.88;9.20;;;6.40;85.90;;;;;;5055887;28;20213;-55
2021/12/26 04:34:14;;;;;;;18.95;8.80;;;6.40;85.90;;;;;;5055723;28;20212;-54
2021/12/26 04:36:42;;;;;;;24.70;9.05;;;6.40;85.70;;;;;;5055713;28;20201;-54
2021/12/26 04:39:09;;;;;;;9.57;6.90;;;6.40;85.70;;;;;;5054401;28;20225;-55
2021/12/26 04:41:36;;;;;;;18.85;7.45;;;6.40;85.70;;;;;;5055445;28;20205;-55
2021/12/26 04:44:03;;;;;;;11.88;7.20;;;6.40;85.70;;;;;;5055488;28;20244;-58
2021/12/26 04:46:30;;;;;;;11.60;6.65;;;6.40;85.70;;;;;;5055549;28;20663;-53
2021/12/26 04:48:57;;;;;;;10.43;6.72;;;6.40;85.70;;;;;;5055613;28;20208;-54
2021/12/26 04:51:24;;;;;;;14.00;7.95;;;6.40;85.70;;;;;;5055538;28;20244;-56
2021/12/26 04:53:52;;;;;;;11.85;7.63;;;6.40;85.70;;;;;;5054209;28;20292;-54
2021/12/26 04:56:19;;;;;;;18.58;9.40;;;6.40;85.70;;;;;;5055257;28;20541;-58
2021/12/26 04:58:46;;;;;;;14.63;8.35;;;6.30;85.70;;;;;;5055090;28;20236;-56
2021/12/26 05:01:12;;;;;;;13.15;8.05;;;6.30;85.80;;;;;;5055275;28;20317;-55
2021/12/26 05:03:40;;;;;;;13.38;7.63;;;6.30;86.00;;;;;;5054324;28;20212;-55
2021/12/26 05:06:07;;;;;;;21.67;7.90;;;6.40;85.90;;;;;;5055207;28;20288;-54
2021/12/26 05:08:35;;;;;;;11.60;7.07;;;6.40;85.70;;;;;;5054409;28;20205;-57
2021/12/26 05:11:03;;;;;;;13.80;7.38;;;6.40;85.70;;;;;;5054931;28;20237;-57
2021/12/26 05:13:30;;;;;;;9.60;6.65;;;6.40;85.70;;;;;;5054854;28;20198;-54
2021/12/26 05:15:57;;;;;;;12.32;7.72;;;6.40;85.70;;;;;;5054972;28;20292;-57
2021/12/26 05:18:24;;;;;;;12.27;7.30;;;6.40;85.70;;;;;;5054910;28;20292;-58
2021/12/26 05:20:50;;;;;;;11.85;8.00;;;6.40;85.70;;;;;;5054914;28;20201;-59
2021/12/26 05:23:17;;;;;;;9.65;6.78;;;6.30;85.80;;;;;;5054691;28;20567;-58
2021/12/26 05:25:44;;;;;;;13.73;8.60;;;6.30;86.10;;;;;;5053505;28;20292;-57
2021/12/26 05:28:13;;;;;;;15.10;8.57;;;6.10;85.70;;;;;;5054646;28;20209;-58
2021/12/26 05:30:40;;;;;;;9.60;7.20;;;6.00;86.70;;;;;;5054708;28;20205;-59
2021/12/26 05:33:07;;;;;;;11.85;7.22;;;6.10;86.70;;;;;;5054715;28;20292;-56
2021/12/26 05:35:34;;;;;;;11.73;6.28;;;6.20;86.70;;;;;;5054636;28;20206;-54
2021/12/26 05:38:01;;;;;;;10.05;6.70;;;6.20;86.20;;;;;;5054448;28;20743;-58
2021/12/26 05:40:28;;;;;;;12.75;7.43;;;6.10;86.20;;;;;;5053181;28;20229;-55
2021/12/26 05:42:54;;;;;;;11.88;6.85;;;5.90;86.50;;;;;;5054314;28;20232;-57
2021/12/26 05:45:23;;;;;;;11.77;7.32;;;5.90;87.30;;;;;;5054457;28;20236;-58
2021/12/26 05:47:50;;;;;;;13.98;8.32;;;5.90;87.30;;;;;;5054344;28;20221;-56
2021/12/26 05:50:20;;;;;;;11.73;7.43;;;6.00;87.60;;;;;;5054440;28;20297;-58
2021/12/26 05:52:47;;;;;;;12.52;7.30;;;6.10;87.60;;;;;;5054269;28;20219;-55
2021/12/26 05:55:14;;;;;;;17.58;10.48;;;6.10;87.10;;;;;;5053012;28;20197;-55
2021/12/26 05:57:41;;;;;;;22.77;11.60;;;6.00;86.80;;;;;;5054035;28;20201;-58
2021/12/26 06:00:11;;;;;;;13.23;8.70;;;5.80;87.10;;;;;;5054022;28;20334;-58
2021/12/26 06:02:40;;;;;;;10.70;7.50;;;5.60;87.90;;;;;;5054131;28;20201;-57
2021/12/26 06:05:07;;;;;;;18.70;9.35;;;5.50;88.20;;;;;;5053960;28;20205;-58
2021/12/26 06:07:34;;;;;;;13.48;8.18;;;5.60;88.60;;;;;;5054017;28;20201;-57
2021/12/26 06:10:01;;;;;;;11.70;7.43;;;5.70;88.80;;;;;;5052489;28;20276;-58
2021/12/26 06:12:28;;;;;;;15.00;8.18;;;5.90;88.50;;;;;;5053756;28;20205;-56
2021/12/26 06:14:55;;;;;;;13.90;7.43;;;6.00;88.20;;;;;;5053773;28;20205;-58
2021/12/26 06:17:22;;;;;;;13.10;7.63;;;6.10;87.90;;;;;;5054024;28;20635;-58
2021/12/26 06:19:50;;;;;;;12.00;6.53;;;6.10;87.40;;;;;;5053566;28;20324;-54
2021/12/26 06:22:17;;;;;;;12.35;7.00;;;6.20;87.60;;;;;;5053748;28;20670;-53
2021/12/26 06:24:43;;;;;;;12.43;7.00;;;6.30;87.50;;;;;;5052261;28;20715;-56
2021/12/26 06:27:10;;;;;;;12.68;7.22;;;6.40;87.50;;;;;;5053621;28;20304;-54
2021/12/26 06:29:37;;;;;;;18.80;9.02;;;6.40;87.10;;;;;;5053474;28;20280;-54
2021/12/26 06:32:05;;;;;;;14.45;8.13;;;6.20;86.60;;;;;;5053482;28;20296;-53
2021/12/26 06:34:32;;;;;;;15.30;8.85;;;6.10;87.50;;;;;;5053406;28;20208;-54
2021/12/26 06:37:00;;;;;;;17.38;9.55;;;6.20;87.90;;;;;;5053655;28;20201;-55
2021/12/26 06:39:27;;;;;;;18.95;9.95;;;6.30;88.00;;;;;;5052090;28;20236;-53
2021/12/26 06:41:54;;;;;;;17.10;9.57;;;6.40;87.70;;;;;;5053311;28;20225;-58
2021/12/26 06:44:21;;;;;;;16.35;8.88;;;6.40;87.10;;;;;;5053192;28;20236;-53
2021/12/26 06:46:48;;;;;;;13.82;7.80;;;6.40;87.10;;;;;;5053083;28;20206;-54
2021/12/26 06:49:17;;;;;;;15.40;8.82;;;6.40;87.40;;;;;;5053298;28;20206;-54
2021/12/26 06:51:45;;;;;;;16.52;7.53;;;6.50;87.00;;;;;;5053289;28;20213;-54
2021/12/26 06:54:14;;;;;;;16.70;9.43;;;6.50;86.80;;;;;;5051952;28;20209;-53
2021/12/26 06:56:41;;;;;;;13.50;7.75;;;6.40;86.60;;;;;;5053088;28;20679;-55
2021/12/26 06:59:08;;;;;;;15.38;7.88;;;6.40;86.90;;;;;;5052815;28;20225;-53
2021/12/26 07:01:35;;;;;;;16.70;8.60;;;6.40;87.30;;;;;;5052963;28;20201;-54
2021/12/26 07:04:02;;;;;;;13.18;7.95;;;6.50;87.30;;;;;;5053064;28;20208;-56
2021/12/26 07:06:29;;;;;;;14.45;8.07;;;6.50;87.20;;;;;;5053062;28;20207;-53
2021/12/26 07:08:56;;;;;;;16.45;8.43;;;6.50;87.00;;;;;;5051629;28;20493;-53
2021/12/26 07:11:24;;;;;;;14.60;7.63;;;6.60;87.20;;;;;;5052862;28;20722;-53
2021/12/26 07:13:51;;;;;;;18.52;9.68;;;6.60;86.90;;;;;;5052637;28;20296;-54
2021/12/26 07:16:18;;;;;;;15.57;8.80;;;6.60;86.60;;;;;;5052940;28;20639;-53
2021/12/26 07:18:44;;;;;;;15.77;9.45;;;6.60;86.40;;;;;;5052848;28;20660;-53
2021/12/26 07:21:11;;;;;;;14.73;8.18;;;6.60;86.70;;;;;;5052773;28;20248;-53
2021/12/26 07:23:38;;;;;;;16.42;8.68;;;6.60;86.30;;;;;;5051447;28;20561;-52
2021/12/26 07:26:05;;;;;;;14.88;8.50;;;6.60;86.60;;;;;;5052256;28;20208;-53
2021/12/26 07:28:33;;;;;;;14.43;9.18;;;6.60;86.30;;;;;;5052498;28;20283;-54
2021/12/26 07:31:00;;;;;;;17.00;8.45;;;6.40;86.60;;;;;;5052950;28;20586;-53
2021/12/26 07:33:28;;;;;;;16.85;9.18;;;6.20;87.20;;;;;;5052645;28;20205;-54
2021/12/26 07:35:54;;;;;;;16.17;8.50;;;6.20;87.80;;;;;;5052641;28;20211;-55
2021/12/26 07:38:21;;;;;;;15.85;8.50;;;6.30;88.00;;;;;;5052728;28;20219;-53
2021/12/26 07:40:48;;;;;;;17.73;9.23;;;6.40;87.90;;;;;;5051181;28;20233;-53
2021/12/26 07:43:16;;;;;;;22.73;10.25;;;6.50;87.50;;;;;;5052357;28;20205;-53
2021/12/26 07:45:44;;;;;;;16.10;8.57;;;6.50;87.50;;;;;;5052711;28;20204;-57
2021/12/26 07:48:11;;;;;;;15.05;8.70;;;6.60;87.40;;;;;;5052548;28;20301;-53
2021/12/26 07:50:38;;;;;;;17.67;9.55;;;6.70;87.30;;;;;;5052602;28;20208;-53
2021/12/26 07:53:09;;;;;;;16.58;8.05;;;6.70;87.30;;;;;;5052541;28;20216;-53
2021/12/26 07:55:36;;;;;;;18.85;9.95;;;6.80;87.00;;;;;;5051029;28;20201;-53
2021/12/26 07:58:04;;;;;;;17.35;9.63;;;6.80;86.90;;;;;;5052283;28;20201;-54
2021/12/26 08:00:31;;;;;;;20.40;10.65;;;6.90;86.70;;;;;;5052313;28;20260;-54
2021/12/26 08:03:00;;;;;;;16.77;9.05;;;6.90;86.50;;;;;;5052419;28;20201;-54
2021/12/26 08:05:27;;;;;;;20.77;10.50;;;7.00;86.60;;;;;;5052453;28;20211;-54
2021/12/26 08:07:55;;;;;;;18.25;10.00;;;7.00;86.40;;;;;;5052325;28;20206;-54
2021/12/26 08:10:23;;;;;;;19.70;10.60;;;7.00;86.60;;;;;;5050731;28;20264;-53
2021/12/26 08:12:50;;;;;;;17.30;9.30;;;7.00;86.10;;;;;;5052130;28;20206;-53
2021/12/26 08:15:17;;;;;;;18.85;9.80;;;6.80;86.70;;;;;;5052361;28;20205;-53
2021/12/26 08:17:44;;;;;;;15.90;10.10;;;6.80;87.00;;;;;;5052318;28;20296;-53
2021/12/26 08:20:13;;;;;;;16.98;9.90;;;6.80;87.10;;;;;;5052071;28;20324;-54
2021/12/26 08:22:40;;;;;;;16.50;9.02;;;6.80;87.20;;;;;;5052075;28;20570;-54
2021/12/26 08:25:08;;;;;;;16.38;9.30;;;6.80;87.50;;;;;;5050842;28;20304;-54
2021/12/26 08:27:35;;;;;;;14.75;9.90;;;6.90;87.40;;;;;;5052170;28;20212;-56
2021/12/26 08:30:03;;;;;;;16.67;9.43;;;7.00;87.30;;;;;;5051957;28;20205;-54
2021/12/26 08:32:33;;;;;;;17.38;9.55;;;7.10;87.30;;;;;;5052193;28;20212;-54
2021/12/26 08:35:01;;;;;;;14.43;9.02;;;7.10;86.70;;;;;;5052143;28;20201;-54
2021/12/26 08:37:29;;;;;;;16.20;9.25;;;7.10;87.10;;;;;;5052563;28;20205;-55
2021/12/26 08:39:56;;;;;;;18.20;10.35;;;7.20;86.90;;;;;;5054270;28;20715;-55
2021/12/26 08:42:23;;;;;;;15.48;9.20;;;7.10;86.50;;;;;;5055543;28;20288;-54
2021/12/26 08:44:52;;;;;;;16.30;9.30;;;7.10;86.80;;;;;;5055388;28;20287;-55
2021/12/26 08:47:19;;;;;;;14.45;8.82;;;7.10;86.80;;;;;;5055606;28;20201;-55
2021/12/26 08:49:46;;;;;;;12.80;8.25;;;7.10;86.70;;;;;;5055470;28;20224;-53
2021/12/26 08:52:13;;;;;;;21.25;11.88;;;7.00;87.00;;;;;;5055528;28;20210;-57
2021/12/26 08:54:41;;;;;;;11.93;7.70;;;7.00;87.30;;;;;;5053789;28;20209;-54
2021/12/26 08:57:09;;;;;;;15.80;9.57;;;7.00;87.40;;;;;;5055404;28;20225;-55
2021/12/26 08:59:37;;;;;;;18.27;10.07;;;7.00;87.70;;;;;;5055111;28;20284;-54
2021/12/26 09:02:07;;;;;;;18.15;10.02;;;7.00;88.00;;;;;;5055239;28;20296;-56
2021/12/26 09:04:34;;;;;;;22.08;11.88;;;7.10;87.50;;;;;;5055068;28;20205;-54
2021/12/26 09:07:01;;;;;;;16.10;9.60;;;7.10;87.10;;;;;;5055092;28;20414;-54
2021/12/26 09:09:29;;;;;;;16.92;9.95;;;7.10;87.00;;;;;;5053724;28;20212;-53
2021/12/26 09:11:57;;;;;;;15.18;9.00;;;7.10;87.10;;;;;;5055014;28;20663;-55
2021/12/26 09:14:24;;;;;;;15.85;10.18;;;7.10;87.40;;;;;;5054882;28;20678;-55
2021/12/26 09:16:51;;;;;;;20.10;10.75;;;7.10;87.20;;;;;;5054908;28;20197;-58
2021/12/26 09:19:18;;;;;;;16.70;9.60;;;7.10;87.00;;;;;;5054841;28;20682;-53
2021/12/26 09:21:45;;;;;;;22.50;11.52;;;7.10;86.60;;;;;;5054867;28;20251;-54
2021/12/26 09:24:11;;;;;;;22.42;12.95;;;7.00;86.60;;;;;;5053494;28;20215;-53
2021/12/26 09:26:38;;;;;;;38.10;15.45;;;6.90;86.40;;;;;;5054821;28;20288;-55
2021/12/26 09:29:06;;;;;;;34.38;14.63;;;6.90;86.60;;;;;;5054525;28;20213;-54
2021/12/26 09:31:33;;;;;;;33.30;15.02;;;6.80;87.10;;;;;;5054563;28;20686;-52
2021/12/26 09:34:00;;;;;;;28.88;14.32;;;6.80;87.40;;;;;;5054605;28;20296;-56
2021/12/26 09:36:28;;;;;;;20.08;11.80;;;6.80;87.30;;;;;;5054650;28;20244;-57
2021/12/26 09:38:55;;;;;;;19.67;12.30;;;6.90;87.40;;;;;;5053250;28;20205;-55
2021/12/26 09:41:23;;;;;;;22.48;13.80;;;6.90;87.50;;;;;;5054341;28;20243;-55
2021/12/26 09:43:49;;;;;;;17.63;11.77;;;6.90;87.40;;;;;;5054378;28;20626;-54
2021/12/26 09:46:18;;;;;;;19.38;11.23;;;6.90;87.90;;;;;;5054321;28;20207;-54
2021/12/26 09:48:44;;;;;;;16.38;10.60;;;6.90;87.60;;;;;;5053941;28;20197;-56
2021/12/26 09:51:12;;;;;;;20.65;12.20;;;7.00;87.70;;;;;;5054377;28;20225;-54
2021/12/26 09:53:43;;;;;;;23.35;12.35;;;6.90;88.20;;;;;;5052874;28;20206;-58
2021/12/26 09:56:10;;;;;;;18.15;10.60;;;7.00;88.10;;;;;;5054183;28;20244;-57
2021/12/26 09:58:52;;;;;;;22.17;12.45;;;7.00;87.90;;;;;;5054054;28;20209;-54
2021/12/26 10:01:29;;;;;;;17.60;10.40;;;7.00;87.80;;;;;;5054151;28;20328;-53
2021/12/26 10:03:56;;;;;;;17.98;10.77;;;7.00;87.80;;;;;;5054083;28;20202;-52
2021/12/26 10:06:23;;;;;;;18.45;11.50;;;6.90;87.80;;;;;;5053976;28;20204;-57
2021/12/26 10:09:03;;;;;;;16.50;11.00;;;6.90;88.10;;;;;;5052633;28;20737;-56
2021/12/26 10:11:31;;;;;;;22.77;12.15;;;6.80;87.90;;;;;;5053749;28;20237;-53
2021/12/26 10:14:00;;;;;;;19.40;12.00;;;6.80;88.20;;;;;;5053707;28;20208;-53
2021/12/26 10:16:31;;;;;;;23.73;12.48;;;6.80;88.50;;;;;;5053854;28;20284;-54
2021/12/26 10:19:00;;;;;;;20.88;12.57;;;6.80;88.50;;;;;;5053912;28;20202;-56
2021/12/26 10:21:36;;;;;;;21.30;12.05;;;6.80;88.70;;;;;;5053736;28;20229;-52
2021/12/26 10:24:11;;;;;;;25.73;13.90;;;6.90;88.90;;;;;;5052343;28;20205;-54
2021/12/26 10:26:40;;;;;;;20.63;11.38;;;7.00;88.80;;;;;;5053697;28;20207;-54
2021/12/26 10:29:16;;;;;;;24.95;12.50;;;7.00;88.90;;;;;;5053438;28;20297;-54
2021/12/26 10:31:49;;;;;;;25.23;13.25;;;7.10;88.90;;;;;;5053677;28;20212;-57
2021/12/26 10:34:20;;;;;;;21.48;11.88;;;7.10;88.70;;;;;;5053411;28;20236;-57
2021/12/26 10:36:49;;;;;;;23.17;14.52;;;7.20;89.00;;;;;;5053457;28;20207;-58
2021/12/26 10:39:18;;;;;;;21.00;11.90;;;7.30;89.30;;;;;;5052073;28;20288;-58
2021/12/26 10:41:47;;;;;;;19.42;11.45;;;7.40;88.90;;;;;;5053348;28;20229;-58
2021/12/26 10:44:25;;;;;;;13.98;9.30;;;7.40;89.10;;;;;;5053278;28;20288;-58
2021/12/26 10:46:55;;;;;;;14.63;10.20;;;7.40;89.00;;;;;;5053149;28;20205;-55
2021/12/26 10:49:24;;;;;;;21.83;11.75;;;7.30;89.30;;;;;;5053339;28;20219;-54
2021/12/26 10:51:51;;;;;;;18.48;10.73;;;7.20;89.30;;;;;;5053238;28;20208;-58
2021/12/26 10:54:20;;;;;;;17.23;10.77;;;7.30;89.60;;;;;;5051731;28;20212;-57
2021/12/26 10:57:03;;;;;;;22.95;11.80;;;7.30;89.70;;;;;;5053214;28;20572;-58
2021/12/26 10:59:31;;;;;;;13.35;9.10;;;7.40;89.70;;;;;;5052705;28;20201;-54
2021/12/26 11:01:59;;;;;;;18.80;12.48;;;7.50;89.40;;;;;;5052430;28;20696;-53
2021/12/26 11:04:26;;;;;;;19.13;10.93;;;7.60;89.00;;;;;;5053084;28;20205;-57
2021/12/26 11:07:00;;;;;;;19.73;12.05;;;7.60;88.70;;;;;;5053002;28;20209;-54
2021/12/26 11:09:28;;;;;;;21.92;12.52;;;7.60;88.80;;;;;;5051426;28;20207;-57
2021/12/26 11:11:59;;;;;;;17.52;10.80;;;7.70;88.80;;;;;;5052807;28;20202;-53
2021/12/26 11:14:26;;;;;;;18.80;11.80;;;7.60;88.40;;;;;;5052793;28;20212;-58
2021/12/26 11:16:53;;;;;;;21.40;13.40;;;7.60;88.50;;;;;;5052792;28;20205;-52
2021/12/26 11:19:46;;;;;;;19.48;12.82;;;7.60;89.00;;;;;;5052719;28;20656;-59
2021/12/26 11:22:13;;;;;;;21.75;13.00;;;7.60;89.60;;;;;;5052513;28;20675;-57
2021/12/26 11:24:40;;;;;;;17.45;11.80;;;7.70;89.80;;;;;;5051286;28;20292;-54
2021/12/26 11:27:08;;;;;;;20.40;13.18;;;7.80;89.60;;;;;;5052588;28;20212;-55
2021/12/26 11:29:35;;;;;;;23.20;12.68;;;7.90;89.20;;;;;;5052503;28;20235;-53
2021/12/26 11:32:02;;;;;;;22.58;13.02;;;8.00;89.10;;;;;;5052625;28;20209;-54
2021/12/26 11:34:32;;;;;;;21.48;13.02;;;8.00;88.30;;;;;;5052589;28;20204;-56
2021/12/26 11:37:00;;;;;;;23.02;12.95;;;8.10;88.90;;;;;;5052393;28;20211;-55
2021/12/26 11:39:29;;;;;;;17.95;12.50;;;8.40;89.40;;;;;;5051022;28;20614;-55
2021/12/26 11:42:12;;;;;;;19.85;13.00;;;8.60;88.10;;;;;;5052519;28;20232;-61
2021/12/26 11:44:57;;;;;;;17.80;11.35;;;8.80;88.10;;;;;;5052294;28;20207;-60
2021/12/26 11:47:58;;;;;;;15.02;10.32;;;9.20;87.50;;;;;;5052539;28;20294;-55
2021/12/26 11:50:35;;;;;;;13.73;10.48;;;9.60;86.60;;;;;;5052470;28;20205;-58
2021/12/26 11:53:36;;;;;;;14.93;10.20;;;9.70;85.10;;;;;;5052452;28;20209;-57
2021/12/26 11:56:13;;;;;;;16.92;11.25;;;9.70;84.40;;;;;;5052433;28;20216;-57
2021/12/26 11:58:52;;;;;;;14.55;9.88;;;9.80;85.00;;;;;;5052291;28;20563;-61
2021/12/26 12:01:22;;;;;;;15.63;10.77;;;10.00;84.60;;;;;;5052375;28;20233;-57
2021/12/26 12:03:49;;;;;;;14.05;10.40;;;10.10;82.80;;;;;;5052329;28;20536;-57
2021/12/26 12:06:25;;;;;;;15.32;11.75;;;10.00;82.60;;;;;;5052380;28;20637;-57
2021/12/26 12:08:55;;;;;;;14.90;10.18;;;9.70;83.80;;;;;;5051086;28;20897;-61
2021/12/26 12:11:22;;;;;;;13.82;10.25;;;9.70;84.20;;;;;;5052717;28;20234;-58
2021/12/26 12:13:53;;;;;;;17.77;12.40;;;9.60;83.40;;;;;;5055941;28;20211;-56
2021/12/26 12:16:33;;;;;;;16.25;10.93;;;9.40;83.80;;;;;;5056077;28;20205;-56
2021/12/26 12:19:02;;;;;;;15.65;10.60;;;9.20;84.60;;;;;;5056082;28;20212;-55
2021/12/26 12:21:36;;;;;;;13.82;10.05;;;8.90;85.80;;;;;;5055927;28;20695;-57
2021/12/26 12:24:07;;;;;;;14.13;10.32;;;8.90;86.50;;;;;;5054695;28;20209;-56
2021/12/26 12:26:50;;;;;;;14.25;10.45;;;8.90;86.80;;;;;;5055978;28;20211;-56
2021/12/26 12:29:48;;;;;;;16.60;11.35;;;8.90;86.70;;;;;;5055764;28;20659;-59
2021/12/26 12:32:17;;;;;;;14.98;10.48;;;8.80;87.70;;;;;;5055988;28;20263;-58
2021/12/26 12:34:51;;;;;;;14.50;9.95;;;8.70;87.50;;;;;;5055732;28;20292;-59
2021/12/26 12:37:30;;;;;;;15.90;11.10;;;8.70;88.30;;;;;;5055564;28;20205;-53
2021/12/26 12:40:11;;;;;;;13.27;9.27;;;8.80;87.60;;;;;;5054269;28;20221;-59
2021/12/26 12:42:39;;;;;;;16.05;12.07;;;8.70;88.20;;;;;;5055563;28;20236;-56
2021/12/26 12:45:06;;;;;;;21.13;12.02;;;8.80;87.70;;;;;;5055408;28;20292;-54
2021/12/26 12:47:33;;;;;;;19.20;14.15;;;8.60;87.90;;;;;;5055518;28;20217;-53
2021/12/26 12:50:02;;;;;;;15.00;10.57;;;8.60;88.00;;;;;;5055280;28;20292;-53
2021/12/26 12:52:59;;;;;;;16.33;11.80;;;8.70;87.80;;;;;;5055404;28;20236;-53
2021/12/26 12:55:50;;;;;;;15.30;10.68;;;8.70;88.30;;;;;;5054078;28;20297;-57